createdAt,value
2023-02-20T00:00:36.973Z,100.00
2023-02-20T00:03:05.090Z,100.00
2023-02-20T00:05:31.933Z,100.00
2023-02-20T00:07:58.746Z,100.00
2023-02-20T00:10:25.872Z,100.00
2023-02-20T00:12:53.404Z,100.00
2023-02-20T00:15:22.762Z,100.00
2023-02-20T00:17:49.853Z,100.00
2023-02-20T00:20:18.734Z,100.00
2023-02-20T00:22:45.407Z,100.00
2023-02-20T00:25:12.338Z,100.00
2023-02-20T00:27:39.028Z,100.00
2023-02-20T00:30:06.361Z,100.00
2023-02-20T00:32:33.028Z,100.00
2023-02-20T00:34:59.772Z,100.00
2023-02-20T00:37:26.422Z,100.00
2023-02-20T00:39:53.118Z,100.00
2023-02-20T00:42:19.863Z,100.00
2023-02-20T00:44:46.487Z,100.00
2023-02-20T00:47:13.227Z,100.00
2023-02-20T00:49:39.847Z,100.00
2023-02-20T00:52:06.453Z,94.86
2023-02-20T00:54:33.149Z,91.32
2023-02-20T00:56:59.787Z,86.76
2023-02-20T00:59:26.531Z,82.30
2023-02-20T01:01:53.237Z,80.42
2023-02-20T01:04:20.893Z,78.87
2023-02-20T01:06:47.683Z,78.37
2023-02-20T01:09:14.638Z,79.26
2023-02-20T01:11:45.260Z,79.50
2023-02-20T01:14:13.673Z,80.30
2023-02-20T01:16:48.633Z,79.69
2023-02-20T01:19:15.541Z,79.65
2023-02-20T01:21:42.220Z,79.61
2023-02-20T01:24:08.960Z,78.98
2023-02-20T01:26:36.520Z,78.72
2023-02-20T01:29:04.609Z,79.15
2023-02-20T01:31:31.456Z,80.23
2023-02-20T01:33:58.199Z,79.21
2023-02-20T01:36:25.080Z,79.62
2023-02-20T01:38:51.745Z,80.01
2023-02-20T01:41:19.165Z,78.91
2023-02-20T01:43:46.637Z,77.88
2023-02-20T01:46:48.459Z,79.45
2023-02-20T01:49:21.077Z,78.79
2023-02-20T01:51:56.394Z,79.36
2023-02-20T01:54:26.069Z,80.36
2023-02-20T01:56:56.661Z,79.57
2023-02-20T01:59:25.358Z,78.67
2023-02-20T02:01:53.010Z,77.21
2023-02-20T02:04:20.696Z,77.70
2023-02-20T02:06:50.387Z,77.77
2023-02-20T02:09:41.775Z,77.70
2023-02-20T02:12:09.870Z,77.23
2023-02-20T02:14:36.552Z,76.62
2023-02-20T02:17:38.666Z,77.40
2023-02-20T02:20:26.470Z,77.07
2023-02-20T02:23:08.085Z,76.99
2023-02-20T02:25:59.806Z,77.29
2023-02-20T02:28:48.186Z,77.23
2023-02-20T02:31:51.836Z,74.96
2023-02-20T02:34:40.176Z,74.67
2023-02-20T02:37:24.912Z,74.08
2023-02-20T02:40:22.656Z,73.95
2023-02-20T02:43:00.537Z,75.06
2023-02-20T02:46:05.029Z,76.00
2023-02-20T02:48:34.413Z,77.14
2023-02-20T02:51:13.979Z,77.94
2023-02-20T02:53:40.629Z,78.65
2023-02-20T02:56:24.092Z,77.45
2023-02-20T02:58:54.934Z,77.46
2023-02-20T03:01:22.065Z,77.82
2023-02-20T03:03:52.078Z,79.50
2023-02-20T03:06:29.189Z,81.50
2023-02-20T03:09:05.186Z,82.89
2023-02-20T03:11:34.671Z,83.57
2023-02-20T03:14:28.615Z,85.77
2023-02-20T03:17:17.847Z,87.37
2023-02-20T03:19:48.198Z,89.10
2023-02-20T03:22:39.111Z,91.90
2023-02-20T03:25:11.000Z,93.92
2023-02-20T03:27:50.630Z,94.73
2023-02-20T03:30:37.693Z,95.19
2023-02-20T03:33:37.037Z,95.96
2023-02-20T03:36:27.562Z,95.92
2023-02-20T03:39:21.974Z,95.06
2023-02-20T03:42:08.400Z,97.54
2023-02-20T03:44:36.978Z,98.39
2023-02-20T03:47:06.280Z,98.81
2023-02-20T03:49:40.047Z,98.38
2023-02-20T03:52:07.350Z,96.02
2023-02-20T03:54:36.508Z,95.64
2023-02-20T03:57:26.633Z,98.32
2023-02-20T03:59:58.016Z,100.00
2023-02-20T04:02:42.619Z,100.00
2023-02-20T04:05:23.634Z,100.00
2023-02-20T04:08:19.830Z,99.66
2023-02-20T04:10:59.958Z,99.69
2023-02-20T04:13:27.088Z,100.00
2023-02-20T04:15:56.453Z,100.00
2023-02-20T04:18:23.409Z,100.00
2023-02-20T04:20:56.028Z,99.28
2023-02-20T04:23:25.942Z,98.45
2023-02-20T04:26:08.588Z,97.28
2023-02-20T04:28:35.575Z,97.00
2023-02-20T04:31:02.494Z,95.83
2023-02-20T04:33:29.234Z,95.50
2023-02-20T04:35:58.511Z,96.85
2023-02-20T04:38:25.678Z,97.21
2023-02-20T04:40:52.443Z,97.19
2023-02-20T04:43:19.220Z,99.03
2023-02-20T04:45:45.959Z,100.00
2023-02-20T04:48:12.728Z,99.81
2023-02-20T04:50:39.526Z,98.97
2023-02-20T04:53:06.273Z,97.86
2023-02-20T04:55:32.965Z,96.58
2023-02-20T04:57:59.610Z,96.37
2023-02-20T05:00:27.168Z,94.49
2023-02-20T05:02:54.533Z,94.28
2023-02-20T05:05:22.746Z,91.82
2023-02-20T05:07:53.615Z,92.06
2023-02-20T05:10:22.307Z,93.30
2023-02-20T05:12:48.932Z,92.77
2023-02-20T05:15:15.846Z,93.35
2023-02-20T05:17:42.516Z,91.35
2023-02-20T05:20:09.865Z,90.25
2023-02-20T05:22:36.612Z,89.33
2023-02-20T05:25:03.866Z,90.29
2023-02-20T05:27:30.620Z,90.29
2023-02-20T05:29:59.273Z,91.20
2023-02-20T05:32:28.804Z,92.14
2023-02-20T05:34:55.794Z,90.77
2023-02-20T05:37:24.566Z,92.82
2023-02-20T05:39:51.347Z,92.39
2023-02-20T05:42:18.486Z,89.30
2023-02-20T05:44:45.424Z,90.82
2023-02-20T05:47:12.283Z,89.75
2023-02-20T05:49:38.966Z,88.98
2023-02-20T05:52:12.001Z,89.26
2023-02-20T05:54:39.588Z,87.89
2023-02-20T05:57:06.993Z,87.25
2023-02-20T05:59:33.712Z,85.11
2023-02-20T06:02:00.706Z,85.03
2023-02-20T06:04:28.090Z,86.11
2023-02-20T06:06:54.923Z,86.03
2023-02-20T06:09:21.754Z,86.12
2023-02-20T06:11:54.640Z,85.27
2023-02-20T06:14:22.991Z,85.82
2023-02-20T06:16:50.000Z,84.96
2023-02-20T06:19:22.587Z,84.29
2023-02-20T06:21:50.922Z,83.89
2023-02-20T06:24:17.841Z,83.65
2023-02-20T06:26:45.578Z,82.20
2023-02-20T06:29:14.312Z,80.92
2023-02-20T06:31:41.543Z,80.92
2023-02-20T06:34:08.990Z,80.65
2023-02-20T06:36:38.583Z,81.77
2023-02-20T06:39:06.986Z,83.10
2023-02-20T06:41:33.674Z,84.01
2023-02-20T06:44:00.450Z,81.80
2023-02-20T06:46:27.193Z,81.63
2023-02-20T06:48:57.206Z,79.13
2023-02-20T06:51:30.739Z,80.29
2023-02-20T06:53:57.758Z,78.15
2023-02-20T06:56:26.988Z,76.16
2023-02-20T06:58:54.399Z,76.26
2023-02-20T07:01:24.225Z,72.44
2023-02-20T07:03:51.126Z,69.85
2023-02-20T07:06:18.192Z,67.80
2023-02-20T07:08:45.131Z,65.50
2023-02-20T07:11:12.239Z,65.53
2023-02-20T07:13:39.060Z,62.52
2023-02-20T07:16:06.537Z,61.55
2023-02-20T07:18:33.329Z,63.19
2023-02-20T07:21:00.113Z,61.99
2023-02-20T07:23:26.935Z,61.78
2023-02-20T07:25:53.732Z,62.30
2023-02-20T07:28:21.536Z,63.11
2023-02-20T07:30:49.297Z,62.87
2023-02-20T07:33:17.553Z,63.79
2023-02-20T07:35:44.758Z,62.50
2023-02-20T07:38:11.838Z,62.67
2023-02-20T07:40:40.101Z,61.90
2023-02-20T07:43:07.254Z,61.24
2023-02-20T07:45:34.032Z,61.83
2023-02-20T07:48:00.728Z,61.33
2023-02-20T07:50:27.546Z,61.65
2023-02-20T07:52:54.253Z,59.89
2023-02-20T07:55:21.087Z,59.79
2023-02-20T07:57:50.415Z,59.43
2023-02-20T08:00:18.407Z,61.11
2023-02-20T08:02:45.261Z,62.70
2023-02-20T08:05:12.497Z,63.08
2023-02-20T08:07:39.675Z,64.04
2023-02-20T08:10:06.596Z,64.84
2023-02-20T08:12:33.413Z,63.43
2023-02-20T08:15:00.048Z,64.60
2023-02-20T08:17:37.190Z,65.78
2023-02-20T08:20:11.807Z,64.89
2023-02-20T08:22:42.006Z,64.46
2023-02-20T08:25:09.491Z,65.43
2023-02-20T08:27:39.457Z,65.20
2023-02-20T08:30:07.278Z,65.45
2023-02-20T08:32:34.106Z,64.95
2023-02-20T08:35:00.899Z,63.78
2023-02-20T08:37:27.612Z,63.21
2023-02-20T08:39:54.312Z,64.87
2023-02-20T08:42:21.062Z,65.70
2023-02-20T08:44:48.071Z,63.01
2023-02-20T08:47:14.749Z,61.83
2023-02-20T08:49:41.432Z,62.33
2023-02-20T08:52:08.552Z,60.31
2023-02-20T08:54:35.199Z,58.44
2023-02-20T08:57:01.921Z,59.31
2023-02-20T08:59:31.977Z,60.52
2023-02-20T09:01:58.879Z,60.67
2023-02-20T09:04:25.565Z,60.10
2023-02-20T09:06:52.258Z,60.25
2023-02-20T09:09:18.887Z,60.13
2023-02-20T09:11:45.731Z,58.55
2023-02-20T09:14:12.549Z,58.61
2023-02-20T09:16:42.102Z,59.90
2023-02-20T09:19:09.905Z,61.75
2023-02-20T09:21:36.753Z,61.67
2023-02-20T09:24:06.302Z,58.79
2023-02-20T09:26:33.024Z,60.22
2023-02-20T09:28:59.711Z,60.69
2023-02-20T09:31:26.535Z,61.16
2023-02-20T09:33:53.314Z,60.50
2023-02-20T09:36:19.996Z,57.00
2023-02-20T09:38:46.793Z,56.14
2023-02-20T09:41:35.824Z,54.98
2023-02-20T09:44:34.664Z,54.66
2023-02-20T09:47:24.116Z,52.67
2023-02-20T09:49:50.892Z,51.18
2023-02-20T09:52:18.050Z,52.31
2023-02-20T09:54:55.882Z,52.36
2023-02-20T09:57:27.738Z,51.47
2023-02-20T10:00:03.191Z,51.36
2023-02-20T10:02:38.140Z,52.96
2023-02-20T10:05:25.714Z,53.58
2023-02-20T10:07:53.533Z,53.96
2023-02-20T10:10:27.229Z,53.77
2023-02-20T10:13:27.859Z,54.43
2023-02-20T10:16:07.311Z,53.99
2023-02-20T10:18:59.108Z,53.99
2023-02-20T10:22:07.330Z,53.50
2023-02-20T10:24:50.656Z,54.27
2023-02-20T10:27:23.232Z,53.25
2023-02-20T10:29:50.945Z,54.13
2023-02-20T10:32:47.362Z,55.71
2023-02-20T10:35:18.914Z,55.65
2023-02-20T10:37:51.066Z,56.77
2023-02-20T10:40:33.269Z,59.01
2023-02-20T10:43:04.434Z,58.55
2023-02-20T10:45:47.605Z,57.92
2023-02-20T10:48:15.721Z,56.80
2023-02-20T10:51:03.969Z,56.08
2023-02-20T10:53:45.058Z,53.24
2023-02-20T10:56:41.697Z,52.18
2023-02-20T10:59:17.795Z,51.42
2023-02-20T11:01:48.369Z,50.57
2023-02-20T11:04:22.916Z,51.47
2023-02-20T11:07:18.358Z,53.71
2023-02-20T11:09:45.418Z,52.88
2023-02-20T11:12:51.697Z,53.69
2023-02-20T11:15:26.021Z,55.46
2023-02-20T11:17:54.327Z,56.15
2023-02-20T11:20:47.548Z,55.16
2023-02-20T11:23:32.914Z,55.53
2023-02-20T11:26:26.514Z,56.78
2023-02-20T11:29:15.077Z,55.51
2023-02-20T11:31:43.107Z,56.65
2023-02-20T11:34:18.701Z,55.67
2023-02-20T11:36:54.531Z,54.01
2023-02-20T11:39:28.169Z,55.06
2023-02-20T11:42:12.453Z,54.92
2023-02-20T11:44:39.239Z,54.98
2023-02-20T11:47:10.996Z,53.70
2023-02-20T11:49:38.697Z,54.03
2023-02-20T11:52:08.525Z,53.47
2023-02-20T11:54:35.435Z,53.55
2023-02-20T11:57:07.116Z,52.70
2023-02-20T11:59:40.863Z,52.12
2023-02-20T12:02:11.905Z,51.92
2023-02-20T12:04:38.583Z,51.80
2023-02-20T12:07:20.029Z,51.96
2023-02-20T12:09:51.383Z,51.00
2023-02-20T12:12:18.972Z,50.33
2023-02-20T12:14:45.650Z,51.36
2023-02-20T12:17:25.499Z,50.06
2023-02-20T12:20:00.552Z,50.35
2023-02-20T12:22:39.214Z,50.97
2023-02-20T12:25:21.155Z,49.99
2023-02-20T12:28:03.709Z,49.83
2023-02-20T12:30:52.853Z,49.67
2023-02-20T12:33:38.378Z,49.59
2023-02-20T12:36:34.256Z,49.81
2023-02-20T12:39:27.078Z,50.23
2023-02-20T12:42:10.592Z,51.30
2023-02-20T12:45:09.222Z,51.05
2023-02-20T12:47:42.938Z,51.50
2023-02-20T12:50:31.004Z,50.50
2023-02-20T12:53:19.547Z,50.70
2023-02-20T12:55:58.826Z,50.67
2023-02-20T12:58:32.942Z,51.61
2023-02-20T13:01:09.619Z,51.36
2023-02-20T13:04:04.538Z,51.11
2023-02-20T13:06:40.000Z,50.50
2023-02-20T13:09:11.902Z,51.19
2023-02-20T13:11:43.652Z,50.15
2023-02-20T13:14:16.156Z,50.35
2023-02-20T13:17:02.039Z,49.37
2023-02-20T13:19:32.018Z,49.24
2023-02-20T13:21:59.231Z,49.28
2023-02-20T13:24:25.807Z,48.71
2023-02-20T13:26:56.900Z,47.56
2023-02-20T13:29:29.701Z,48.03
2023-02-20T13:32:03.008Z,48.45
2023-02-20T13:34:39.941Z,48.27
2023-02-20T13:37:36.438Z,49.68
2023-02-20T13:40:36.570Z,50.77
2023-02-20T13:43:12.597Z,51.54
2023-02-20T13:45:43.965Z,51.93
2023-02-20T13:48:34.088Z,52.90
2023-02-20T13:51:19.970Z,52.41
2023-02-20T13:53:49.594Z,52.89
2023-02-20T13:56:25.958Z,52.69
2023-02-20T13:58:56.015Z,53.51
2023-02-20T14:01:22.790Z,53.13
2023-02-20T14:04:03.674Z,53.96
2023-02-20T14:06:30.519Z,53.39
2023-02-20T14:09:15.154Z,53.78
2023-02-20T14:11:41.834Z,53.84
2023-02-20T14:14:26.942Z,53.53
2023-02-20T14:17:23.162Z,53.29
2023-02-20T14:20:13.772Z,53.23
2023-02-20T14:22:41.312Z,53.03
2023-02-20T14:25:20.081Z,52.91
2023-02-20T14:27:50.562Z,52.62
2023-02-20T14:30:19.531Z,51.56
2023-02-20T14:32:50.543Z,49.91
2023-02-20T14:35:19.463Z,49.59
2023-02-20T14:38:18.439Z,49.40
2023-02-20T14:40:46.191Z,49.48
2023-02-20T14:43:23.065Z,50.05
2023-02-20T14:46:02.344Z,49.56
2023-02-20T14:48:32.224Z,49.80
2023-02-20T14:51:24.481Z,49.44
2023-02-20T14:54:03.119Z,50.17
2023-02-20T14:56:33.983Z,50.05
2023-02-20T14:59:25.595Z,50.10
2023-02-20T15:01:58.708Z,50.88
2023-02-20T15:04:26.808Z,50.71
2023-02-20T15:07:00.777Z,50.94
2023-02-20T15:09:37.565Z,51.72
2023-02-20T15:12:06.870Z,52.74
2023-02-20T15:14:33.887Z,52.69
2023-02-20T15:17:13.508Z,52.90
2023-02-20T15:19:42.097Z,53.31
2023-02-20T15:22:40.946Z,53.40
2023-02-20T15:25:13.771Z,53.01
2023-02-20T15:27:40.597Z,53.11
2023-02-20T15:30:17.933Z,53.50
2023-02-20T15:32:52.208Z,53.68
2023-02-20T15:35:24.907Z,53.95
2023-02-20T15:37:55.366Z,53.53
2023-02-20T15:40:31.889Z,53.34
2023-02-20T15:43:04.254Z,53.38
2023-02-20T15:45:32.035Z,53.26
2023-02-20T15:47:59.168Z,52.15
2023-02-20T15:50:28.654Z,52.38
2023-02-20T15:52:57.067Z,52.34
2023-02-20T15:55:24.738Z,51.32
2023-02-20T15:57:56.842Z,51.40
2023-02-20T16:00:28.438Z,51.54
2023-02-20T16:02:55.278Z,51.84
2023-02-20T16:05:22.116Z,51.90
2023-02-20T16:07:49.041Z,52.06
2023-02-20T16:10:18.443Z,52.46
2023-02-20T16:12:45.818Z,52.59
2023-02-20T16:15:17.643Z,52.61
2023-02-20T16:17:44.848Z,53.45
2023-02-20T16:20:23.123Z,53.14
2023-02-20T16:22:50.208Z,51.93
2023-02-20T16:25:19.549Z,51.96
2023-02-20T16:27:49.507Z,51.42
2023-02-20T16:30:32.899Z,51.31
2023-02-20T16:33:00.477Z,51.54
2023-02-20T16:35:27.114Z,51.87
2023-02-20T16:37:53.792Z,52.58
2023-02-20T16:40:20.526Z,52.89
2023-02-20T16:42:47.433Z,53.58
2023-02-20T16:45:17.324Z,53.81
2023-02-20T16:47:44.226Z,53.67
2023-02-20T16:50:13.865Z,53.41
2023-02-20T16:52:41.739Z,53.49
2023-02-20T16:55:36.123Z,52.78
2023-02-20T16:58:04.362Z,52.23
2023-02-20T17:00:34.884Z,52.00
2023-02-20T17:03:03.081Z,51.75
2023-02-20T17:05:32.536Z,51.78
2023-02-20T17:08:00.121Z,51.56
2023-02-20T17:10:27.952Z,51.14
2023-02-20T17:12:55.773Z,51.99
2023-02-20T17:15:24.573Z,52.21
2023-02-20T17:17:52.722Z,52.69
2023-02-20T17:20:25.403Z,52.17
2023-02-20T17:23:03.919Z,52.13
2023-02-20T17:25:33.526Z,51.30
2023-02-20T17:28:00.490Z,51.45
2023-02-20T17:30:27.288Z,51.51
2023-02-20T17:32:54.026Z,51.89
2023-02-20T17:35:20.758Z,51.23
2023-02-20T17:37:47.509Z,51.70
2023-02-20T17:40:15.509Z,51.30
2023-02-20T17:42:42.373Z,50.87
2023-02-20T17:45:09.579Z,51.08
2023-02-20T17:47:37.455Z,51.41
2023-02-20T17:50:04.734Z,51.52
2023-02-20T17:52:31.499Z,52.24
2023-02-20T17:54:58.188Z,51.71
2023-02-20T17:57:26.508Z,51.74
2023-02-20T17:59:53.350Z,52.54
2023-02-20T18:02:20.354Z,53.47
2023-02-20T18:04:47.138Z,53.75
2023-02-20T18:07:14.609Z,54.61
2023-02-20T18:09:41.543Z,57.24
2023-02-20T18:12:08.722Z,59.19
2023-02-20T18:14:35.995Z,60.60
2023-02-20T18:17:02.974Z,62.98
2023-02-20T18:19:29.787Z,64.63
2023-02-20T18:21:57.056Z,65.77
2023-02-20T18:24:27.604Z,67.21
2023-02-20T18:26:54.790Z,68.69
2023-02-20T18:29:25.442Z,69.54
2023-02-20T18:31:53.803Z,71.63
2023-02-20T18:34:21.814Z,73.58
2023-02-20T18:36:49.246Z,77.40
2023-02-20T18:39:16.789Z,83.19
2023-02-20T18:41:57.310Z,90.03
2023-02-20T18:44:24.543Z,100.00
2023-02-20T18:46:51.368Z,100.00
2023-02-20T18:49:18.555Z,100.00
2023-02-20T18:51:45.424Z,100.00
2023-02-20T18:54:18.174Z,100.00
2023-02-20T18:56:51.587Z,100.00
2023-02-20T18:59:18.737Z,100.00
2023-02-20T19:01:46.060Z,100.00
2023-02-20T19:04:15.055Z,100.00
2023-02-20T19:06:44.735Z,100.00
2023-02-20T19:09:15.806Z,100.00
2023-02-20T19:11:42.521Z,100.00
2023-02-20T19:14:09.201Z,100.00
2023-02-20T19:16:36.231Z,100.00
2023-02-20T19:19:03.009Z,100.00
2023-02-20T19:21:29.682Z,100.00
2023-02-20T19:23:56.394Z,100.00
2023-02-20T19:26:23.014Z,100.00
2023-02-20T19:28:49.868Z,100.00
2023-02-20T19:31:16.912Z,100.00
2023-02-20T19:33:43.666Z,100.00
2023-02-20T19:36:10.735Z,100.00
2023-02-20T19:38:38.715Z,100.00
2023-02-20T19:41:05.428Z,100.00
2023-02-20T19:43:32.233Z,95.85
2023-02-20T19:45:59.073Z,91.77
2023-02-20T19:48:28.038Z,91.21
2023-02-20T19:50:56.181Z,92.75
2023-02-20T19:53:23.258Z,92.77
2023-02-20T19:55:54.310Z,91.23
2023-02-20T19:58:21.364Z,90.43
2023-02-20T20:00:48.120Z,88.08
2023-02-20T20:03:14.865Z,87.00
2023-02-20T20:05:41.475Z,85.43
2023-02-20T20:08:08.307Z,83.87
2023-02-20T20:10:35.525Z,84.10
2023-02-20T20:13:02.239Z,84.27
2023-02-20T20:15:29.633Z,85.87
2023-02-20T20:18:02.270Z,87.90
2023-02-20T20:23:26.038Z,80.59
2023-02-20T20:25:52.770Z,80.43
2023-02-20T20:28:19.423Z,78.37
2023-02-20T20:30:46.213Z,76.77
2023-02-20T20:33:13.002Z,74.64
2023-02-20T20:35:39.678Z,74.05
2023-02-20T20:38:07.887Z,74.35
2023-02-20T20:40:34.593Z,74.20
2023-02-20T20:43:02.894Z,72.13
2023-02-20T20:45:29.785Z,71.94
2023-02-20T20:47:56.514Z,71.32
2023-02-20T20:50:27.804Z,69.00
2023-02-20T20:52:55.034Z,68.61
2023-02-20T20:55:21.697Z,67.23
2023-02-20T20:57:51.529Z,65.94
2023-02-20T21:00:25.078Z,65.60
2023-02-20T21:02:53.284Z,65.01
2023-02-20T21:05:22.525Z,65.25
2023-02-20T21:07:49.282Z,64.77
2023-02-20T21:10:16.292Z,63.55
2023-02-20T21:12:43.385Z,62.13
2023-02-20T21:15:12.519Z,61.78
2023-02-20T21:17:40.702Z,61.32
2023-02-20T21:20:13.896Z,60.88
2023-02-20T21:22:40.541Z,60.65
2023-02-20T21:25:07.514Z,60.39
2023-02-20T21:27:34.271Z,60.17
2023-02-20T21:30:01.618Z,60.66
2023-02-20T21:32:29.898Z,62.81
2023-02-20T21:34:56.874Z,65.19
2023-02-20T21:37:23.566Z,68.87
2023-02-20T21:39:50.663Z,71.85
2023-02-20T21:42:36.763Z,74.68
2023-02-20T21:45:04.076Z,79.70
2023-02-20T21:47:30.724Z,81.31
2023-02-20T21:49:57.433Z,84.44
2023-02-20T21:52:24.610Z,88.74
2023-02-20T21:54:54.103Z,95.29
2023-02-20T21:57:21.438Z,100.00
2023-02-20T21:59:48.011Z,100.00
2023-02-20T22:02:19.758Z,99.79
2023-02-20T22:04:46.722Z,100.00
2023-02-20T22:07:33.125Z,99.63
2023-02-20T22:10:17.982Z,90.47
2023-02-20T22:13:03.185Z,83.33
2023-02-20T22:15:48.864Z,78.98
2023-02-20T22:18:34.022Z,78.71
2023-02-20T22:21:19.453Z,78.57
2023-02-20T22:24:04.760Z,78.82
2023-02-20T22:26:49.858Z,80.06
2023-02-20T22:29:35.319Z,82.90
2023-02-20T22:32:20.595Z,86.24
2023-02-20T22:35:12.091Z,87.88
2023-02-20T22:37:57.723Z,88.56
2023-02-20T22:40:43.151Z,89.17
2023-02-20T22:43:28.546Z,86.49
2023-02-20T22:46:13.878Z,85.74
2023-02-20T22:48:59.382Z,83.70
2023-02-20T22:51:44.729Z,85.89
2023-02-20T22:54:30.050Z,93.35
2023-02-20T22:57:16.113Z,96.22
2023-02-20T23:00:01.724Z,100.00
2023-02-20T23:02:47.746Z,100.00
2023-02-20T23:05:33.342Z,100.00
2023-02-20T23:08:19.149Z,100.00
2023-02-20T23:11:05.102Z,100.00
2023-02-20T23:13:50.483Z,100.00
2023-02-20T23:16:40.439Z,100.00
2023-02-20T23:19:28.576Z,100.00
2023-02-20T23:22:14.654Z,100.00
2023-02-20T23:25:00.036Z,100.00
2023-02-20T23:27:45.469Z,100.00
2023-02-20T23:30:31.360Z,100.00
2023-02-20T23:33:16.605Z,100.00
2023-02-20T23:36:02.142Z,95.05
2023-02-20T23:38:47.566Z,88.94
2023-02-20T23:41:32.991Z,88.28
2023-02-20T23:44:18.476Z,88.30
2023-02-20T23:47:05.375Z,89.85
2023-02-20T23:49:50.926Z,94.52
2023-02-20T23:52:36.336Z,100.00
2023-02-20T23:55:21.815Z,100.00
2023-02-20T23:58:07.353Z,100.00
